PABR Airport Information

Runway Information
Runway 06 Length 6500 ft width 150 ft
Elevation 44 ft Threshold 0 ft Heading 90
Runway 24 Length 6500 ft Width 150 ft
Elevation 29 ft Threshold 0 ft Heading 270
Airport Frequencies
Type ASOS Name ASOS Frequency 132.15 MHZ
Type CNTR Name ANCHORAGE Frequency 135.3 MHZ
Type CTAF Name CTAF Frequency 123.6 MHZ
Type FSS Name BARROW RDO Frequency 122.2 MHZ
Airport Navaids
Type VOR-DME Name Barrow Frequency 116200 KHZ
Type NDB Name Wiley Frequency 248 KHZ
Type NDB Name Browerville Frequency 281 KHZ
Airport Weather Information & NOTAM
ADDS - METARS form results

(1024 UTC 02 December 2020)
Data provider http://aviationweather.gov/metar/data/
 
METAR text: PABR 020953Z AUTO 07010KT 10SM OVC014 M14/M17 A2928 RMK AO2 SLP915 T11441172 TSNO
Conditions at: PABR (UTQIAGVIK , AK, US) observed 0953 UTC 02 December 2020
Temperature: -14.4°C ( 6°F)
Dewpoint: -17.2°C ( 1°F) [RH = 79%]
Pressure (altimeter): 29.28 inches Hg (991.6 mb)
[Sea-level pressure:  991.5 mb]
Winds: from the ENE (70 degrees) at 12 MPH (10 knots; 5.1 m/s)
Visibility: 10 or more miles (16+ km)
Ceiling: 1400 feet AGL
Clouds: overcast cloud deck at 1400 feet AGL
Weather: automated observation with no human augmentation;
there may or may not be significant weather present at this time

METAR text: PABR 020943Z AUTO 06011KT 10SM OVC014 M14/M17 A2927 RMK AO2 T11441172 TSNO
Conditions at: PABR (UTQIAGVIK , AK, US) observed 0943 UTC 02 December 2020
Temperature: -14.4°C ( 6°F)
Dewpoint: -17.2°C ( 1°F) [RH = 79%]
Pressure (altimeter): 29.27 inches Hg (991.3 mb)
Winds: from the ENE (60 degrees) at 13 MPH (11 knots; 5.7 m/s)
Visibility: 10 or more miles (16+ km)
Ceiling: 1400 feet AGL
Clouds: overcast cloud deck at 1400 feet AGL
Weather: automated observation with no human augmentation;
there may or may not be significant weather present at this time

Forecast for: PABR (UTQIAGVIK , AK, US)
Text: PABR 020539Z 0206/0306 05015KT 4SM -SN BR OVC015
Forecast period: 0600 to 1500 UTC 02 December 2020
Forecast type: FROM: standard forecast or significant change
Winds: from the NE (50 degrees) at 17 MPH (15 knots; 7.7 m/s)
Visibility: 4 miles (6 km)
Ceiling: 1500 feet AGL
Clouds: overcast cloud deck at 1500 feet AGL
Weather: -SN BR  (light snow, mist)
Text: FM021500 05014KT 2SM -SN BLSN OVC015
Forecast period: 1500 UTC 02 December 2020 to 0300 UTC 03 December 2020
Forecast type: FROM: standard forecast or significant change
Winds: from the NE (50 degrees) at 16 MPH (14 knots; 7.2 m/s)
Visibility: 2.00 miles (3.22 km)
Ceiling: 1500 feet AGL
Clouds: overcast cloud deck at 1500 feet AGL
Weather: -SN BLSN  (light snow, blowing snow)
Text: FM030300 07006KT 4SM -SN BR OVC015
Forecast period: 0300 to 0600 UTC 03 December 2020
Forecast type: FROM: standard forecast or significant change
Winds: from the ENE (70 degrees) at 7 MPH (6 knots; 3.1 m/s)
Visibility: 4 miles (6 km)
Ceiling: 1500 feet AGL
Clouds: overcast cloud deck at 1500 feet AGL
Weather: -SN BR  (light snow, mist)